sensor_id;sensor_type;location;lat;lon;timestamp;pressure;altitude;pressure_sealevel;temperature;humidity
52249;BME280;38541;48.130;8.378;2022-09-09T00:02:23;92545.66;;;12.94;67.62
52249;BME280;38541;48.130;8.378;2022-09-09T00:05:04;92547.22;;;12.95;67.69
52249;BME280;38541;48.130;8.378;2022-09-09T00:07:53;92548.47;;;12.78;67.18
52249;BME280;38541;48.130;8.378;2022-09-09T00:10:30;92550.66;;;12.71;67.74
52249;BME280;38541;48.130;8.378;2022-09-09T00:13:15;92548.06;;;12.66;67.50
52249;BME280;38541;48.130;8.378;2022-09-09T00:18:44;92536.00;;;12.60;67.76
52249;BME280;38541;48.130;8.378;2022-09-09T00:21:14;92532.91;;;12.52;67.97
52249;BME280;38541;48.130;8.378;2022-09-09T00:23:49;92531.34;;;12.51;68.04
52249;BME280;38541;48.130;8.378;2022-09-09T00:26:36;92537.41;;;12.52;68.45
52249;BME280;38541;48.130;8.378;2022-09-09T00:31:35;92527.75;;;12.42;68.74
52249;BME280;38541;48.130;8.378;2022-09-09T00:36:40;92528.28;;;12.39;68.75
52249;BME280;38541;48.130;8.378;2022-09-09T00:44:52;92522.00;;;12.35;69.30
52249;BME280;38541;48.130;8.378;2022-09-09T00:53:00;92526.78;;;12.33;69.01
52249;BME280;38541;48.130;8.378;2022-09-09T00:58:07;92531.88;;;12.24;69.73
52249;BME280;38541;48.130;8.378;2022-09-09T01:00:44;92535.81;;;12.26;70.46
52249;BME280;38541;48.130;8.378;2022-09-09T01:03:26;92534.63;;;12.38;70.83
52249;BME280;38541;48.130;8.378;2022-09-09T01:06:14;92531.97;;;12.43;69.67
52249;BME280;38541;48.130;8.378;2022-09-09T01:11:21;92537.06;;;12.34;70.01
52249;BME280;38541;48.130;8.378;2022-09-09T01:13:55;92542.53;;;12.38;70.81
52249;BME280;38541;48.130;8.378;2022-09-09T01:16:29;92544.06;;;12.44;70.80
52249;BME280;38541;48.130;8.378;2022-09-09T01:18:57;92540.38;;;12.45;70.86
52249;BME280;38541;48.130;8.378;2022-09-09T01:24:24;92533.59;;;12.63;71.18
52249;BME280;38541;48.130;8.378;2022-09-09T01:27:17;92530.63;;;12.70;69.74
52249;BME280;38541;48.130;8.378;2022-09-09T01:29:45;92530.91;;;12.68;68.63
52249;BME280;38541;48.130;8.378;2022-09-09T01:32:37;92540.69;;;12.68;68.33
52249;BME280;38541;48.130;8.378;2022-09-09T01:35:07;92537.31;;;12.62;68.14
52249;BME280;38541;48.130;8.378;2022-09-09T01:37:36;92535.97;;;12.65;68.76
52249;BME280;38541;48.130;8.378;2022-09-09T01:40:03;92537.53;;;12.66;69.14
52249;BME280;38541;48.130;8.378;2022-09-09T01:42:32;92537.53;;;12.66;69.04
52249;BME280;38541;48.130;8.378;2022-09-09T01:44:58;92532.84;;;12.63;69.38
52249;BME280;38541;48.130;8.378;2022-09-09T01:47:25;92532.03;;;12.62;69.37
52249;BME280;38541;48.130;8.378;2022-09-09T01:50:10;92534.97;;;12.61;69.50
52249;BME280;38541;48.130;8.378;2022-09-09T01:52:39;92525.56;;;12.49;69.52
52249;BME280;38541;48.130;8.378;2022-09-09T01:55:10;92531.44;;;12.41;70.48
52249;BME280;38541;48.130;8.378;2022-09-09T02:03:36;92519.41;;;12.59;70.25
52249;BME280;38541;48.130;8.378;2022-09-09T02:08:50;92528.00;;;12.70;70.11
52249;BME280;38541;48.130;8.378;2022-09-09T02:11:21;92528.00;;;12.70;70.32
52249;BME280;38541;48.130;8.378;2022-09-09T02:14:13;92524.22;;;12.76;70.31
52249;BME280;38541;48.130;8.378;2022-09-09T02:16:54;92535.34;;;12.73;71.05
52249;BME280;38541;48.130;8.378;2022-09-09T02:19:32;92541.75;;;12.67;71.40
52249;BME280;38541;48.130;8.378;2022-09-09T02:22:19;92544.09;;;12.68;72.34
52249;BME280;38541;48.130;8.378;2022-09-09T02:24:49;92550.72;;;12.66;72.06
52249;BME280;38541;48.130;8.378;2022-09-09T02:27:22;92558.63;;;12.66;72.72
52249;BME280;38541;48.130;8.378;2022-09-09T02:29:51;92552.56;;;12.65;73.39
52249;BME280;38541;48.130;8.378;2022-09-09T02:32:32;92558.63;;;12.66;73.44
52249;BME280;38541;48.130;8.378;2022-09-09T02:35:08;92550.09;;;12.74;74.54
52249;BME280;38541;48.130;8.378;2022-09-09T02:37:38;92541.59;;;12.82;74.96
52249;BME280;38541;48.130;8.378;2022-09-09T02:40:08;92535.44;;;12.87;74.95
52249;BME280;38541;48.130;8.378;2022-09-09T02:46:58;92535.75;;;12.86;74.46
52249;BME280;38541;48.130;8.378;2022-09-09T02:52:06;92534.75;;;12.81;75.17
52249;BME280;38541;48.130;8.378;2022-09-09T02:54:39;92546.63;;;12.79;75.29
52249;BME280;38541;48.130;8.378;2022-09-09T02:59:47;92542.66;;;12.81;74.25
52249;BME280;38541;48.130;8.378;2022-09-09T03:02:15;92540.78;;;12.82;75.00
52249;BME280;38541;48.130;8.378;2022-09-09T03:04:45;92538.66;;;12.84;75.79
52249;BME280;38541;48.130;8.378;2022-09-09T03:07:18;92533.72;;;12.77;75.43
52249;BME280;38541;48.130;8.378;2022-09-09T03:09:46;92531.88;;;12.78;76.51
52249;BME280;38541;48.130;8.378;2022-09-09T03:12:12;92529.09;;;12.88;76.92
52249;BME280;38541;48.130;8.378;2022-09-09T03:14:39;92529.09;;;12.88;76.17
52249;BME280;38541;48.130;8.378;2022-09-09T03:17:06;92535.13;;;12.94;76.68
52249;BME280;38541;48.130;8.378;2022-09-09T03:19:37;92536.19;;;12.93;76.32
52249;BME280;38541;48.130;8.378;2022-09-09T03:22:09;92536.19;;;12.93;76.18
52249;BME280;38541;48.130;8.378;2022-09-09T03:24:38;92529.81;;;12.99;76.48
52249;BME280;38541;48.130;8.378;2022-09-09T03:27:05;92534.78;;;13.01;76.61
52249;BME280;38541;48.130;8.378;2022-09-09T03:29:33;92538.22;;;13.01;77.13
52249;BME280;38541;48.130;8.378;2022-09-09T03:32:05;92540.34;;;12.99;77.73
52249;BME280;38541;48.130;8.378;2022-09-09T03:34:31;92536.84;;;13.04;77.75
52249;BME280;38541;48.130;8.378;2022-09-09T03:36:58;92541.00;;;13.10;78.14
52249;BME280;38541;48.130;8.378;2022-09-09T03:39:26;92541.50;;;13.12;78.63
52249;BME280;38541;48.130;8.378;2022-09-09T03:41:53;92539.66;;;13.12;78.32
52249;BME280;38541;48.130;8.378;2022-09-09T03:44:20;92527.19;;;13.18;78.55
52249;BME280;38541;48.130;8.378;2022-09-09T03:46:46;92522.91;;;13.22;78.87
52249;BME280;38541;48.130;8.378;2022-09-09T03:49:13;92524.63;;;13.32;79.53
52249;BME280;38541;48.130;8.378;2022-09-09T03:51:41;92522.44;;;13.39;78.95
52249;BME280;38541;48.130;8.378;2022-09-09T03:54:09;92519.47;;;13.46;78.56
52249;BME280;38541;48.130;8.378;2022-09-09T03:56:37;92517.63;;;13.47;78.81
52249;BME280;38541;48.130;8.378;2022-09-09T03:59:03;92527.03;;;13.53;78.69
52249;BME280;38541;48.130;8.378;2022-09-09T04:01:30;92516.28;;;13.49;78.77
52249;BME280;38541;48.130;8.378;2022-09-09T04:03:56;92514.41;;;13.50;78.83
52249;BME280;38541;48.130;8.378;2022-09-09T04:06:25;92514.91;;;13.52;78.72
52249;BME280;38541;48.130;8.378;2022-09-09T04:08:52;92519.81;;;13.59;79.04
52249;BME280;38541;48.130;8.378;2022-09-09T04:11:19;92524.25;;;13.63;78.86
52249;BME280;38541;48.130;8.378;2022-09-09T04:13:48;92521.03;;;13.66;78.25
52249;BME280;38541;48.130;8.378;2022-09-09T04:16:17;92507.25;;;13.69;77.96
52249;BME280;38541;48.130;8.378;2022-09-09T04:18:44;92513.03;;;13.72;77.28
52249;BME280;38541;48.130;8.378;2022-09-09T04:21:13;92512.53;;;13.69;77.36
52249;BME280;38541;48.130;8.378;2022-09-09T04:23:40;92517.31;;;13.67;77.00
52249;BME280;38541;48.130;8.378;2022-09-09T04:26:07;92519.34;;;13.76;77.26
52249;BME280;38541;48.130;8.378;2022-09-09T04:28:35;92515.13;;;13.75;76.46
52249;BME280;38541;48.130;8.378;2022-09-09T04:31:07;92511.41;;;13.76;76.92
52249;BME280;38541;48.130;8.378;2022-09-09T04:33:37;92519.88;;;13.73;77.06
52249;BME280;38541;48.130;8.378;2022-09-09T04:36:07;92519.34;;;13.76;76.94
52249;BME280;38541;48.130;8.378;2022-09-09T04:38:34;92529.66;;;13.72;76.84
52249;BME280;38541;48.130;8.378;2022-09-09T04:41:02;92525.16;;;13.73;76.79
52249;BME280;38541;48.130;8.378;2022-09-09T04:43:29;92526.38;;;13.80;77.12
52249;BME280;38541;48.130;8.378;2022-09-09T04:45:58;92518.94;;;13.82;76.86
52249;BME280;38541;48.130;8.378;2022-09-09T04:48:26;92520.81;;;13.82;76.57
52249;BME280;38541;48.130;8.378;2022-09-09T04:50:57;92516.03;;;13.84;76.65
52249;BME280;38541;48.130;8.378;2022-09-09T04:53:25;92526.38;;;13.80;76.48
52249;BME280;38541;48.130;8.378;2022-09-09T04:58:34;92530.88;;;13.80;76.50
52249;BME280;38541;48.130;8.378;2022-09-09T05:01:05;92534.59;;;13.79;76.57
52249;BME280;38541;48.130;8.378;2022-09-09T05:03:32;92536.94;;;13.80;76.62
52249;BME280;38541;48.130;8.378;2022-09-09T05:06:10;92529.00;;;13.80;76.26
52249;BME280;38541;48.130;8.378;2022-09-09T05:08:38;92535.38;;;13.79;76.56
52249;BME280;38541;48.130;8.378;2022-09-09T05:11:26;92540.06;;;13.82;76.33
52249;BME280;38541;48.130;8.378;2022-09-09T05:13:58;92536.94;;;13.80;76.28
52249;BME280;38541;48.130;8.378;2022-09-09T05:16:24;92543.22;;;13.84;76.71
52249;BME280;38541;48.130;8.378;2022-09-09T05:18:51;92533.44;;;13.85;76.39
52249;BME280;38541;48.130;8.378;2022-09-09T05:21:20;92533.16;;;13.87;76.25
52249;BME280;38541;48.130;8.378;2022-09-09T05:23:47;92532.16;;;13.82;76.56
52249;BME280;38541;48.130;8.378;2022-09-09T05:26:17;92537.16;;;13.84;76.23
52249;BME280;38541;48.130;8.378;2022-09-09T05:28:46;92531.28;;;13.87;76.60
52249;BME280;38541;48.130;8.378;2022-09-09T05:31:14;92524.66;;;13.90;76.65
52249;BME280;38541;48.130;8.378;2022-09-09T05:33:45;92532.28;;;13.91;76.33
52249;BME280;38541;48.130;8.378;2022-09-09T05:36:18;92524.34;;;13.91;76.32
52249;BME280;38541;48.130;8.378;2022-09-09T05:38:47;92529.63;;;13.91;76.52
52249;BME280;38541;48.130;8.378;2022-09-09T05:41:14;92526.44;;;13.94;76.56
52249;BME280;38541;48.130;8.378;2022-09-09T05:43:43;92522.44;;;13.97;76.31
52249;BME280;38541;48.130;8.378;2022-09-09T05:46:13;92527.94;;;14.01;76.23
52249;BME280;38541;48.130;8.378;2022-09-09T05:48:42;92530.97;;;14.08;76.21
52249;BME280;38541;48.130;8.378;2022-09-09T05:51:11;92532.00;;;14.12;75.87
52249;BME280;38541;48.130;8.378;2022-09-09T05:53:39;92529.63;;;14.10;75.36
52249;BME280;38541;48.130;8.378;2022-09-09T05:56:08;92539.81;;;14.17;75.17
52249;BME280;38541;48.130;8.378;2022-09-09T05:58:37;92533.09;;;14.25;75.54
52249;BME280;38541;48.130;8.378;2022-09-09T06:01:11;92538.06;;;14.26;74.86
52249;BME280;38541;48.130;8.378;2022-09-09T06:03:43;92531.22;;;14.25;74.38
52249;BME280;38541;48.130;8.378;2022-09-09T06:06:13;92526.38;;;14.33;75.09
52249;BME280;38541;48.130;8.378;2022-09-09T06:08:42;92532.03;;;14.40;74.98
52249;BME280;38541;48.130;8.378;2022-09-09T06:11:16;92525.19;;;14.39;73.99
52249;BME280;38541;48.130;8.378;2022-09-09T06:13:43;92534.91;;;14.44;74.11
52249;BME280;38541;48.130;8.378;2022-09-09T06:16:12;92533.03;;;14.44;73.61
52249;BME280;38541;48.130;8.378;2022-09-09T06:18:41;92532.56;;;14.56;73.49
52249;BME280;38541;48.130;8.378;2022-09-09T06:21:15;92539.03;;;14.64;73.57
52249;BME280;38541;48.130;8.378;2022-09-09T06:23:43;92539.94;;;14.59;72.43
52249;BME280;38541;48.130;8.378;2022-09-09T06:26:13;92530.09;;;14.46;72.17
52249;BME280;38541;48.130;8.378;2022-09-09T06:28:40;92532.06;;;14.54;71.98
52249;BME280;38541;48.130;8.378;2022-09-09T06:31:20;92532.88;;;14.54;72.65
52249;BME280;38541;48.130;8.378;2022-09-09T06:34:00;92531.00;;;14.55;72.41
52249;BME280;38541;48.130;8.378;2022-09-09T06:36:30;92544.25;;;14.69;72.86
52249;BME280;38541;48.130;8.378;2022-09-09T06:38:58;92540.34;;;14.80;73.58
52249;BME280;38541;48.130;8.378;2022-09-09T06:41:27;92548.19;;;14.86;74.45
52249;BME280;38541;48.130;8.378;2022-09-09T06:43:55;92549.19;;;14.90;73.89
52249;BME280;38541;48.130;8.378;2022-09-09T06:46:30;92546.72;;;14.93;74.61
52249;BME280;38541;48.130;8.378;2022-09-09T06:49:00;92548.59;;;14.93;73.63
52249;BME280;38541;48.130;8.378;2022-09-09T06:51:33;92552.91;;;14.89;73.61
52249;BME280;38541;48.130;8.378;2022-09-09T06:54:02;92560.53;;;14.90;74.17
52249;BME280;38541;48.130;8.378;2022-09-09T06:56:34;92551.53;;;14.91;74.69
52249;BME280;38541;48.130;8.378;2022-09-09T06:59:06;92561.34;;;14.91;74.83
52249;BME280;38541;48.130;8.378;2022-09-09T07:01:38;92569.75;;;14.93;75.00
52249;BME280;38541;48.130;8.378;2022-09-09T07:04:11;92573.09;;;14.98;75.13
52249;BME280;38541;48.130;8.378;2022-09-09T07:06:44;92570.03;;;15.05;74.78
52249;BME280;38541;48.130;8.378;2022-09-09T07:09:15;92569.16;;;15.10;74.58
52249;BME280;38541;48.130;8.378;2022-09-09T07:11:48;92563.97;;;15.19;74.52
52249;BME280;38541;48.130;8.378;2022-09-09T07:14:16;92568.09;;;15.25;74.67
52249;BME280;38541;48.130;8.378;2022-09-09T07:16:46;92566.44;;;15.29;74.39
52249;BME280;38541;48.130;8.378;2022-09-09T07:19:15;92570.16;;;15.28;74.00
52249;BME280;38541;48.130;8.378;2022-09-09T07:21:43;92570.53;;;15.35;73.88
52249;BME280;38541;48.130;8.378;2022-09-09T07:24:13;92574.16;;;15.39;73.60
52249;BME280;38541;48.130;8.378;2022-09-09T07:26:41;92570.91;;;15.43;73.52
52249;BME280;38541;48.130;8.378;2022-09-09T07:29:08;92573.06;;;15.40;72.96
52249;BME280;38541;48.130;8.378;2022-09-09T07:31:36;92578.09;;;15.42;73.17
52249;BME280;38541;48.130;8.378;2022-09-09T07:34:07;92577.69;;;15.49;73.03
52249;BME280;38541;48.130;8.378;2022-09-09T07:36:38;92576.22;;;15.57;73.14
52249;BME280;38541;48.130;8.378;2022-09-09T07:39:09;92578.53;;;15.58;73.17
52249;BME280;38541;48.130;8.378;2022-09-09T07:41:42;92581.88;;;15.64;72.84
52249;BME280;38541;48.130;8.378;2022-09-09T07:44:13;92587.06;;;15.69;72.91
52249;BME280;38541;48.130;8.378;2022-09-09T07:46:41;92581.56;;;15.79;73.04
52249;BME280;38541;48.130;8.378;2022-09-09T07:49:10;92588.53;;;15.89;73.73
52249;BME280;38541;48.130;8.378;2022-09-09T07:51:39;92583.59;;;15.96;73.41
52249;BME280;38541;48.130;8.378;2022-09-09T07:54:09;92589.81;;;15.92;73.35
52249;BME280;38541;48.130;8.378;2022-09-09T07:56:40;92581.84;;;15.78;72.95
52249;BME280;38541;48.130;8.378;2022-09-09T07:59:09;92594.19;;;15.82;73.87
52249;BME280;38541;48.130;8.378;2022-09-09T08:01:41;92595.78;;;15.69;67.88
52249;BME280;38541;48.130;8.378;2022-09-09T08:04:14;92597.19;;;15.53;66.28
52249;BME280;38541;48.130;8.378;2022-09-09T08:06:45;92590.41;;;15.61;68.16
52249;BME280;38541;48.130;8.378;2022-09-09T08:09:14;92588.28;;;15.86;67.68
52249;BME280;38541;48.130;8.378;2022-09-09T08:11:42;92593.22;;;15.92;65.33
52249;BME280;38541;48.130;8.378;2022-09-09T08:14:10;92597.31;;;15.84;64.78
52249;BME280;38541;48.130;8.378;2022-09-09T08:16:40;92597.72;;;15.78;64.42
52249;BME280;38541;48.130;8.378;2022-09-09T08:19:08;92580.94;;;15.82;65.00
52249;BME280;38541;48.130;8.378;2022-09-09T08:21:36;92584.28;;;15.88;65.70
52249;BME280;38541;48.130;8.378;2022-09-09T08:24:04;92587.19;;;16.01;64.47
52249;BME280;38541;48.130;8.378;2022-09-09T08:26:39;92599.47;;;15.96;62.97
52249;BME280;38541;48.130;8.378;2022-09-09T08:29:07;92607.72;;;15.81;62.04
52249;BME280;38541;48.130;8.378;2022-09-09T08:31:36;92603.63;;;15.75;62.38
52249;BME280;38541;48.130;8.378;2022-09-09T08:34:06;92608.72;;;15.71;62.65
52249;BME280;38541;48.130;8.378;2022-09-09T08:36:35;92601.28;;;15.59;61.99
52249;BME280;38541;48.130;8.378;2022-09-09T08:39:05;92607.19;;;15.56;61.57
52249;BME280;38541;48.130;8.378;2022-09-09T08:41:59;92598.75;;;15.54;61.33
52249;BME280;38541;48.130;8.378;2022-09-09T08:55:51;92616.25;;;16.06;61.50
52249;BME280;38541;48.130;8.378;2022-09-09T08:58:25;92613.59;;;16.06;61.72
52249;BME280;38541;48.130;8.378;2022-09-09T09:09:45;92613.13;;;16.04;61.14
52249;BME280;38541;48.130;8.378;2022-09-09T09:12:23;92610.19;;;15.91;61.37
52249;BME280;38541;48.130;8.378;2022-09-09T09:14:53;92598.13;;;15.85;60.77
52249;BME280;38541;48.130;8.378;2022-09-09T09:17:23;92600.69;;;15.90;59.32
52249;BME280;38541;48.130;8.378;2022-09-09T09:19:52;92602.94;;;15.83;60.62
52249;BME280;38541;48.130;8.378;2022-09-09T09:22:32;92577.63;;;15.91;59.76
52249;BME280;38541;48.130;8.378;2022-09-09T09:25:15;92587.31;;;15.95;58.74
52249;BME280;38541;48.130;8.378;2022-09-09T09:30:25;92586.09;;;16.16;59.39
52249;BME280;38541;48.130;8.378;2022-09-09T09:33:22;92578.19;;;16.24;59.01
52249;BME280;38541;48.130;8.378;2022-09-09T09:35:51;92589.28;;;16.26;59.18
52249;BME280;38541;48.130;8.378;2022-09-09T09:38:26;92586.16;;;16.24;58.20
52249;BME280;38541;48.130;8.378;2022-09-09T09:41:14;92587.94;;;16.15;55.32
52249;BME280;38541;48.130;8.378;2022-09-09T09:43:41;92609.88;;;16.07;54.53
52249;BME280;38541;48.130;8.378;2022-09-09T09:46:23;92610.84;;;16.11;55.29
52249;BME280;38541;48.130;8.378;2022-09-09T09:49:03;92608.66;;;16.13;53.46
52249;BME280;38541;48.130;8.378;2022-09-09T09:51:33;92588.00;;;16.24;54.63
52249;BME280;38541;48.130;8.378;2022-09-09T09:56:41;92603.38;;;16.36;53.77
52249;BME280;38541;48.130;8.378;2022-09-09T10:02:23;92583.31;;;16.98;53.68
52249;BME280;38541;48.130;8.378;2022-09-09T10:07:29;92595.59;;;17.17;50.86
52249;BME280;38541;48.130;8.378;2022-09-09T10:09:57;92569.91;;;17.03;49.63
52249;BME280;38541;48.130;8.378;2022-09-09T10:21:46;92584.25;;;17.34;50.72
52249;BME280;38541;48.130;8.378;2022-09-09T10:24:48;92586.88;;;17.25;48.44
52249;BME280;38541;48.130;8.378;2022-09-09T10:35:33;92579.16;;;17.55;48.17
52249;BME280;38541;48.130;8.378;2022-09-09T10:38:37;92582.06;;;17.36;47.98
52249;BME280;38541;48.130;8.378;2022-09-09T10:41:26;92585.88;;;17.61;49.76
52249;BME280;38541;48.130;8.378;2022-09-09T10:52:09;92602.63;;;17.88;47.11
52249;BME280;38541;48.130;8.378;2022-09-09T10:54:55;92574.34;;;17.83;45.26
52249;BME280;38541;48.130;8.378;2022-09-09T10:57:42;92577.03;;;17.92;45.80
52249;BME280;38541;48.130;8.378;2022-09-09T11:00:20;92570.63;;;18.02;46.16
52249;BME280;38541;48.130;8.378;2022-09-09T11:02:56;92567.66;;;18.21;45.58
52249;BME280;38541;48.130;8.378;2022-09-09T11:05:41;92557.16;;;18.34;46.78
52249;BME280;38541;48.130;8.378;2022-09-09T11:08:26;92556.03;;;18.52;46.28
52249;BME280;38541;48.130;8.378;2022-09-09T11:16:30;92564.25;;;18.86;44.86
52249;BME280;38541;48.130;8.378;2022-09-09T11:21:57;92564.59;;;18.76;44.70
52249;BME280;38541;48.130;8.378;2022-09-09T11:27:10;92598.63;;;18.35;47.58
52249;BME280;38541;48.130;8.378;2022-09-09T11:40:37;92599.91;;;17.62;48.40
52249;BME280;38541;48.130;8.378;2022-09-09T11:43:33;92585.22;;;17.47;49.95
52249;BME280;38541;48.130;8.378;2022-09-09T11:46:06;92580.69;;;17.47;50.38
52249;BME280;38541;48.130;8.378;2022-09-09T11:51:06;92582.94;;;17.89;49.15
52249;BME280;38541;48.130;8.378;2022-09-09T11:53:54;92574.97;;;17.89;49.77
52249;BME280;38541;48.130;8.378;2022-09-09T11:56:34;92582.03;;;18.20;48.15
52249;BME280;38541;48.130;8.378;2022-09-09T11:59:22;92571.72;;;18.01;46.79
52249;BME280;38541;48.130;8.378;2022-09-09T12:04:26;92585.75;;;18.72;48.47
52249;BME280;38541;48.130;8.378;2022-09-09T12:06:59;92600.78;;;18.68;47.08
52249;BME280;38541;48.130;8.378;2022-09-09T12:09:33;92598.63;;;18.52;47.20
52249;BME280;38541;48.130;8.378;2022-09-09T12:12:06;92604.41;;;18.37;47.03
52249;BME280;38541;48.130;8.378;2022-09-09T12:17:19;92579.50;;;18.59;48.20
52249;BME280;38541;48.130;8.378;2022-09-09T12:19:47;92607.00;;;18.90;47.21
52249;BME280;38541;48.130;8.378;2022-09-09T12:22:27;92602.97;;;18.66;44.50
52249;BME280;38541;48.130;8.378;2022-09-09T12:25:18;92594.25;;;18.39;44.64
52249;BME280;38541;48.130;8.378;2022-09-09T12:28:04;92582.66;;;18.44;46.65
52249;BME280;38541;48.130;8.378;2022-09-09T12:33:39;92585.63;;;18.51;45.37
52249;BME280;38541;48.130;8.378;2022-09-09T12:36:29;92585.13;;;18.58;45.87
52249;BME280;38541;48.130;8.378;2022-09-09T12:38:59;92572.28;;;18.60;45.89
52249;BME280;38541;48.130;8.378;2022-09-09T12:41:36;92579.63;;;18.72;46.13
52249;BME280;38541;48.130;8.378;2022-09-09T12:44:05;92578.22;;;18.74;46.06
52249;BME280;38541;48.130;8.378;2022-09-09T12:46:41;92584.44;;;18.96;45.28
52249;BME280;38541;48.130;8.378;2022-09-09T12:49:38;92591.84;;;19.29;45.49
52249;BME280;38541;48.130;8.378;2022-09-09T12:52:14;92592.47;;;18.61;46.54
52249;BME280;38541;48.130;8.378;2022-09-09T12:54:46;92580.28;;;18.60;47.25
52249;BME280;38541;48.130;8.378;2022-09-09T12:57:14;92600.91;;;18.72;48.66
52249;BME280;38541;48.130;8.378;2022-09-09T12:59:42;92583.69;;;18.87;48.17
52249;BME280;38541;48.130;8.378;2022-09-09T13:02:18;92566.84;;;19.13;47.95
52249;BME280;38541;48.130;8.378;2022-09-09T13:04:46;92563.78;;;19.32;46.85
52249;BME280;38541;48.130;8.378;2022-09-09T13:07:13;92563.66;;;19.28;46.94
52249;BME280;38541;48.130;8.378;2022-09-09T13:09:43;92584.56;;;19.08;47.23
52249;BME280;38541;48.130;8.378;2022-09-09T13:12:15;92549.25;;;19.29;48.18
52249;BME280;38541;48.130;8.378;2022-09-09T13:14:45;92563.06;;;19.52;47.83
52249;BME280;38541;48.130;8.378;2022-09-09T13:17:21;92563.25;;;19.47;45.96
52249;BME280;38541;48.130;8.378;2022-09-09T13:19:49;92543.06;;;19.67;44.67
52249;BME280;38541;48.130;8.378;2022-09-09T13:27:34;92544.44;;;19.74;44.49
52249;BME280;38541;48.130;8.378;2022-09-09T13:35:52;92550.13;;;19.93;44.08
52249;BME280;38541;48.130;8.378;2022-09-09T13:38:20;92555.38;;;19.51;43.82
52249;BME280;38541;48.130;8.378;2022-09-09T13:40:58;92552.41;;;19.22;45.48
52249;BME280;38541;48.130;8.378;2022-09-09T13:43:29;92565.84;;;18.78;45.25
52249;BME280;38541;48.130;8.378;2022-09-09T13:46:01;92558.06;;;18.56;47.32
52249;BME280;38541;48.130;8.378;2022-09-09T13:48:28;92567.47;;;18.35;47.78
52249;BME280;38541;48.130;8.378;2022-09-09T13:53:23;92552.00;;;17.93;49.37
52249;BME280;38541;48.130;8.378;2022-09-09T13:55:50;92534.16;;;17.76;49.57
52249;BME280;38541;48.130;8.378;2022-09-09T13:58:19;92547.31;;;18.08;48.81
52249;BME280;38541;48.130;8.378;2022-09-09T14:00:45;92563.56;;;17.97;49.37
52249;BME280;38541;48.130;8.378;2022-09-09T14:03:13;92562.03;;;18.14;49.27
52249;BME280;38541;48.130;8.378;2022-09-09T14:05:40;92602.78;;;17.83;49.71
52249;BME280;38541;48.130;8.378;2022-09-09T14:08:07;92610.88;;;17.60;50.96
52249;BME280;38541;48.130;8.378;2022-09-09T14:10:37;92620.03;;;17.36;55.90
52249;BME280;38541;48.130;8.378;2022-09-09T14:13:03;92611.25;;;17.36;58.96
52249;BME280;38541;48.130;8.378;2022-09-09T14:15:30;92592.03;;;17.30;55.66
52249;BME280;38541;48.130;8.378;2022-09-09T14:17:56;92591.13;;;17.44;57.47
52249;BME280;38541;48.130;8.378;2022-09-09T14:20:25;92585.97;;;17.38;56.35
52249;BME280;38541;48.130;8.378;2022-09-09T14:22:51;92581.00;;;17.46;55.26
52249;BME280;38541;48.130;8.378;2022-09-09T14:25:20;92573.66;;;17.51;53.41
52249;BME280;38541;48.130;8.378;2022-09-09T14:27:47;92577.47;;;17.77;55.37
52249;BME280;38541;48.130;8.378;2022-09-09T14:30:13;92568.41;;;17.78;54.24
52249;BME280;38541;48.130;8.378;2022-09-09T14:32:40;92578.88;;;18.62;52.48
52249;BME280;38541;48.130;8.378;2022-09-09T14:35:06;92577.13;;;18.75;48.90
52249;BME280;38541;48.130;8.378;2022-09-09T14:37:33;92594.56;;;18.11;50.45
52249;BME280;38541;48.130;8.378;2022-09-09T14:40:01;92573.44;;;17.30;51.51
52249;BME280;38541;48.130;8.378;2022-09-09T14:42:27;92570.53;;;17.49;50.79
52249;BME280;38541;48.130;8.378;2022-09-09T14:44:55;92563.88;;;17.96;48.45
52249;BME280;38541;48.130;8.378;2022-09-09T14:47:22;92562.63;;;18.37;48.69
52249;BME280;38541;48.130;8.378;2022-09-09T14:49:48;92580.97;;;19.04;45.74
52249;BME280;38541;48.130;8.378;2022-09-09T14:52:16;92582.97;;;19.16;44.91
52249;BME280;38541;48.130;8.378;2022-09-09T14:54:42;92565.88;;;19.26;45.83
52249;BME280;38541;48.130;8.378;2022-09-09T14:57:09;92562.44;;;19.77;45.81
52249;BME280;38541;48.130;8.378;2022-09-09T14:59:35;92606.19;;;20.06;44.42
52249;BME280;38541;48.130;8.378;2022-09-09T15:02:02;92572.03;;;19.48;45.31
52249;BME280;38541;48.130;8.378;2022-09-09T15:04:30;92593.09;;;19.62;45.52
52249;BME280;38541;48.130;8.378;2022-09-09T15:06:57;92577.97;;;19.53;45.59
52249;BME280;38541;48.130;8.378;2022-09-09T15:09:24;92563.34;;;19.60;45.70
52249;BME280;38541;48.130;8.378;2022-09-09T15:11:51;92587.91;;;19.95;44.89
52249;BME280;38541;48.130;8.378;2022-09-09T15:14:17;92572.09;;;20.33;44.92
52249;BME280;38541;48.130;8.378;2022-09-09T15:16:50;92577.31;;;20.08;44.16
52249;BME280;38541;48.130;8.378;2022-09-09T15:19:17;92570.81;;;19.96;44.81
52249;BME280;38541;48.130;8.378;2022-09-09T15:21:43;92562.06;;;20.30;44.24
52249;BME280;38541;48.130;8.378;2022-09-09T15:24:10;92558.34;;;20.77;42.96
52249;BME280;38541;48.130;8.378;2022-09-09T15:26:37;92554.19;;;21.13;42.22
52249;BME280;38541;48.130;8.378;2022-09-09T15:29:05;92563.88;;;21.30;42.20
52249;BME280;38541;48.130;8.378;2022-09-09T15:31:31;92556.56;;;21.40;41.86
52249;BME280;38541;48.130;8.378;2022-09-09T15:34:03;92563.22;;;21.58;42.25
52249;BME280;38541;48.130;8.378;2022-09-09T15:36:36;92555.44;;;21.16;41.69
52249;BME280;38541;48.130;8.378;2022-09-09T15:39:05;92567.69;;;20.16;43.52
52249;BME280;38541;48.130;8.378;2022-09-09T15:41:32;92558.56;;;19.95;43.80
52249;BME280;38541;48.130;8.378;2022-09-09T15:44:00;92554.63;;;19.42;45.60
52249;BME280;38541;48.130;8.378;2022-09-09T15:46:36;92565.00;;;19.43;46.95
52249;BME280;38541;48.130;8.378;2022-09-09T15:49:11;92569.63;;;20.28;44.27
52249;BME280;38541;48.130;8.378;2022-09-09T15:51:41;92558.31;;;20.31;44.52
52249;BME280;38541;48.130;8.378;2022-09-09T15:54:15;92559.53;;;20.67;44.24
52249;BME280;38541;48.130;8.378;2022-09-09T15:56:47;92551.75;;;20.62;44.19